createdAt,value
2022-12-15T00:01:56.502Z,31.60
2022-12-15T00:04:41.419Z,33.85
2022-12-15T00:07:26.703Z,27.60
2022-12-15T00:10:12.060Z,27.40
2022-12-15T00:12:57.684Z,24.55
2022-12-15T00:15:42.512Z,28.50
2022-12-15T00:18:27.370Z,28.73
2022-12-15T00:21:15.931Z,27.00
2022-12-15T00:24:00.959Z,27.17
2022-12-15T00:26:45.956Z,28.35
2022-12-15T00:29:30.857Z,26.52
2022-12-15T00:32:16.117Z,30.33
2022-12-15T00:35:01.047Z,30.23
2022-12-15T00:37:45.929Z,30.02
2022-12-15T00:40:12.479Z,32.33
2022-12-15T00:42:39.014Z,34.60
2022-12-15T00:45:05.726Z,29.67
2022-12-15T00:47:32.567Z,28.55
2022-12-15T00:50:17.664Z,29.02
2022-12-15T00:53:02.615Z,29.45
2022-12-15T00:55:47.837Z,33.88
2022-12-15T00:58:32.718Z,29.25
2022-12-15T01:01:24.042Z,26.13
2022-12-15T01:04:09.348Z,27.95
2022-12-15T01:06:54.567Z,24.80
2022-12-15T01:09:39.702Z,24.08
2022-12-15T01:12:24.810Z,25.38
2022-12-15T01:15:09.697Z,22.38
2022-12-15T01:17:54.581Z,28.42
2022-12-15T01:20:21.162Z,24.92
2022-12-15T01:22:53.087Z,24.88
2022-12-15T01:25:20.485Z,24.77
2022-12-15T01:27:46.997Z,24.23
2022-12-15T01:30:14.908Z,26.02
2022-12-15T01:32:45.875Z,25.92
2022-12-15T01:35:12.654Z,23.65
2022-12-15T01:37:39.382Z,26.27
2022-12-15T01:40:25.451Z,25.63
2022-12-15T01:42:51.909Z,22.30
2022-12-15T01:45:38.626Z,24.00
2022-12-15T01:48:06.836Z,26.13
2022-12-15T01:50:37.031Z,23.58
2022-12-15T01:53:03.520Z,24.58
2022-12-15T01:55:30.463Z,26.70
2022-12-15T01:57:59.605Z,25.48
2022-12-15T02:00:26.426Z,26.25
2022-12-15T02:02:53.041Z,26.88
2022-12-15T02:05:20.330Z,23.90
2022-12-15T02:07:46.768Z,26.17
2022-12-15T02:10:16.455Z,26.20
2022-12-15T02:12:53.972Z,26.08
2022-12-15T02:15:26.184Z,31.50
2022-12-15T02:18:11.573Z,28.30
2022-12-15T02:20:58.232Z,29.33
2022-12-15T02:23:34.120Z,26.15
2022-12-15T02:26:03.679Z,22.55
2022-12-15T02:28:52.505Z,29.38
2022-12-15T02:31:41.848Z,25.73
2022-12-15T02:34:14.595Z,24.85
2022-12-15T02:36:49.031Z,24.83
2022-12-15T02:39:15.452Z,26.63
2022-12-15T02:41:43.158Z,31.27
2022-12-15T02:44:15.094Z,29.17
2022-12-15T02:47:00.314Z,27.38
2022-12-15T02:49:32.174Z,26.52
2022-12-15T02:52:18.761Z,28.83
2022-12-15T02:55:04.076Z,27.02
2022-12-15T02:57:36.533Z,25.33
2022-12-15T03:00:07.378Z,25.35
2022-12-15T03:02:34.935Z,26.48
2022-12-15T03:05:01.501Z,30.40
2022-12-15T03:07:28.049Z,26.23
2022-12-15T03:10:01.546Z,27.38
2022-12-15T03:12:27.910Z,25.10
2022-12-15T03:14:54.254Z,27.02
2022-12-15T03:17:20.650Z,27.27
2022-12-15T03:19:47.075Z,27.33
2022-12-15T03:22:16.348Z,27.92
2022-12-15T03:24:42.963Z,26.60
2022-12-15T03:27:09.410Z,25.67
2022-12-15T03:29:35.738Z,29.92
2022-12-15T03:32:02.271Z,25.85
2022-12-15T03:34:28.747Z,25.10
2022-12-15T03:36:55.259Z,25.55
2022-12-15T03:39:21.624Z,25.42
2022-12-15T03:41:47.980Z,22.88
2022-12-15T03:44:14.342Z,24.38
2022-12-15T03:46:40.712Z,25.10
2022-12-15T03:49:07.073Z,25.48
2022-12-15T03:51:33.586Z,24.98
2022-12-15T03:54:00.020Z,23.48
2022-12-15T03:56:26.452Z,26.33
2022-12-15T03:58:52.831Z,26.45
2022-12-15T04:01:25.994Z,28.20
2022-12-15T04:03:55.585Z,25.50
2022-12-15T04:06:26.967Z,26.27
2022-12-15T04:08:53.336Z,25.45
2022-12-15T04:11:19.696Z,26.33
2022-12-15T04:13:46.090Z,28.70
2022-12-15T04:16:17.831Z,26.48
2022-12-15T04:18:46.062Z,29.70
2022-12-15T04:21:12.861Z,27.63
2022-12-15T04:23:39.216Z,30.85
2022-12-15T04:26:24.286Z,26.63
2022-12-15T04:29:09.293Z,30.42
2022-12-15T04:31:54.176Z,27.77
2022-12-15T04:34:40.915Z,29.17
2022-12-15T04:37:27.248Z,26.10
2022-12-15T04:40:13.058Z,28.65
2022-12-15T04:43:01.964Z,33.67
2022-12-15T04:45:46.875Z,24.30
2022-12-15T04:48:31.990Z,28.27
2022-12-15T04:51:16.942Z,29.23
2022-12-15T04:54:02.303Z,29.25
2022-12-15T04:56:47.204Z,28.33
2022-12-15T04:59:35.014Z,32.65
2022-12-15T05:02:20.018Z,28.33
2022-12-15T05:05:05.225Z,30.88
2022-12-15T05:07:50.176Z,30.25
2022-12-15T05:10:35.325Z,29.83
2022-12-15T05:13:24.192Z,27.70
2022-12-15T05:16:09.166Z,30.58
2022-12-15T05:18:54.253Z,26.58
2022-12-15T05:21:39.092Z,27.95
2022-12-15T05:24:23.973Z,28.75
2022-12-15T05:27:08.814Z,30.30
2022-12-15T05:29:53.786Z,35.20
2022-12-15T05:32:20.131Z,28.08
2022-12-15T05:34:46.493Z,30.08
2022-12-15T05:37:12.848Z,26.38
2022-12-15T05:39:39.317Z,28.23
2022-12-15T05:42:05.773Z,27.73
2022-12-15T05:44:32.184Z,35.60
2022-12-15T05:46:58.537Z,30.20
2022-12-15T05:49:24.885Z,27.42
2022-12-15T05:51:51.417Z,31.73
2022-12-15T05:54:18.722Z,29.50
2022-12-15T05:56:45.551Z,32.38
2022-12-15T05:59:12.137Z,27.77
2022-12-15T06:01:38.641Z,30.50
2022-12-15T06:04:05.575Z,36.17
2022-12-15T06:06:31.950Z,29.27
2022-12-15T06:08:58.381Z,32.70
2022-12-15T06:11:24.855Z,30.70
2022-12-15T06:13:51.353Z,31.50
2022-12-15T06:16:21.612Z,28.60
2022-12-15T06:18:50.494Z,30.00
2022-12-15T06:21:21.318Z,26.27
2022-12-15T06:23:48.040Z,32.22
2022-12-15T06:26:15.892Z,29.83
2022-12-15T06:28:42.308Z,33.28
2022-12-15T06:31:10.011Z,36.65
2022-12-15T06:33:36.984Z,28.52
2022-12-15T06:36:04.717Z,33.05
2022-12-15T06:38:31.459Z,35.55
2022-12-15T06:41:01.712Z,33.08
2022-12-15T06:43:28.975Z,33.38
2022-12-15T06:45:55.749Z,31.85
2022-12-15T06:48:22.720Z,32.22
2022-12-15T06:50:50.342Z,34.75
2022-12-15T06:53:17.710Z,29.67
2022-12-15T06:55:44.208Z,31.70
2022-12-15T06:58:12.315Z,35.28
2022-12-15T07:00:39.747Z,33.90
2022-12-15T07:03:16.607Z,31.10
2022-12-15T07:05:43.914Z,31.83
2022-12-15T07:08:11.307Z,32.05
2022-12-15T07:10:38.818Z,31.27
2022-12-15T07:13:05.272Z,35.90
2022-12-15T07:15:31.769Z,33.50
2022-12-15T07:18:00.621Z,33.35
2022-12-15T07:20:28.924Z,33.70
2022-12-15T07:22:55.615Z,34.30
2022-12-15T07:25:22.175Z,33.30
2022-12-15T07:27:48.825Z,32.17
2022-12-15T07:30:16.075Z,33.10
2022-12-15T07:32:44.163Z,31.30
2022-12-15T07:37:43.231Z,34.83
2022-12-15T07:40:10.110Z,31.67
2022-12-15T07:42:36.587Z,30.08
2022-12-15T07:45:03.963Z,34.38
2022-12-15T07:47:30.358Z,32.47
2022-12-15T07:49:56.825Z,30.67
2022-12-15T07:52:23.467Z,33.45
2022-12-15T07:54:49.982Z,33.05
2022-12-15T07:57:16.487Z,29.77
2022-12-15T07:59:43.012Z,33.45
2022-12-15T08:02:10.394Z,34.80
2022-12-15T08:04:37.151Z,34.22
2022-12-15T08:07:03.745Z,31.25
2022-12-15T08:09:31.617Z,32.97
2022-12-15T08:11:58.207Z,41.92
2022-12-15T08:14:25.030Z,37.30
2022-12-15T08:16:51.772Z,39.05
2022-12-15T08:19:18.279Z,36.22
2022-12-15T08:21:45.681Z,35.78
2022-12-15T08:24:13.565Z,47.47
2022-12-15T08:26:40.547Z,35.92
2022-12-15T08:29:40.407Z,35.17
2022-12-15T08:31:54.583Z,34.15
2022-12-15T08:34:21.096Z,39.00
2022-12-15T08:36:47.486Z,35.88
2022-12-15T08:39:13.841Z,39.25
2022-12-15T08:41:41.181Z,41.40
2022-12-15T08:44:07.759Z,43.63
2022-12-15T08:46:35.040Z,39.90
2022-12-15T08:49:01.954Z,38.08
2022-12-15T08:51:28.998Z,35.22
2022-12-15T08:53:56.160Z,40.00
2022-12-15T08:56:23.295Z,37.90
2022-12-15T08:58:50.532Z,41.85
2022-12-15T09:01:22.936Z,37.10
2022-12-15T09:03:51.050Z,39.57
2022-12-15T09:06:21.981Z,39.90
2022-12-15T09:08:50.396Z,33.75
2022-12-15T09:11:17.594Z,36.63
2022-12-15T09:13:44.421Z,37.58
2022-12-15T09:16:14.680Z,37.45
2022-12-15T09:18:42.376Z,30.58
2022-12-15T09:21:08.977Z,28.60
2022-12-15T09:23:36.442Z,34.65
2022-12-15T09:26:04.410Z,34.47
2022-12-15T09:28:31.961Z,33.65
2022-12-15T09:31:02.129Z,35.33
2022-12-15T09:33:28.699Z,40.85
2022-12-15T09:35:55.332Z,38.92
2022-12-15T09:38:21.736Z,35.53
2022-12-15T09:40:50.082Z,38.28
2022-12-15T09:43:34.291Z,35.85
2022-12-15T09:46:11.713Z,36.20
2022-12-15T09:48:40.348Z,34.85
2022-12-15T09:51:09.057Z,40.55
2022-12-15T09:56:26.003Z,34.50
2022-12-15T09:58:52.419Z,37.90
2022-12-15T10:01:26.505Z,35.42
2022-12-15T10:04:07.360Z,31.70
2022-12-15T10:06:36.930Z,33.58
2022-12-15T10:09:16.259Z,36.83
2022-12-15T10:11:51.463Z,31.85
2022-12-15T10:14:26.810Z,32.88
2022-12-15T10:17:06.696Z,32.97
2022-12-15T10:22:37.331Z,36.03
2022-12-15T10:25:15.853Z,29.77
2022-12-15T10:28:00.936Z,31.98
2022-12-15T10:30:27.500Z,32.53
2022-12-15T10:32:57.048Z,32.63
2022-12-15T10:35:26.983Z,32.03
2022-12-15T10:37:57.491Z,32.33
2022-12-15T10:40:42.558Z,33.70
2022-12-15T10:43:28.038Z,33.95
2022-12-15T10:46:01.979Z,35.72
2022-12-15T10:48:28.532Z,29.17
2022-12-15T10:51:13.779Z,32.97
2022-12-15T10:53:42.143Z,31.20
2022-12-15T10:56:09.266Z,33.70
2022-12-15T10:58:46.223Z,39.55
2022-12-15T11:01:19.146Z,36.72
2022-12-15T11:03:46.548Z,34.88
2022-12-15T11:06:15.714Z,33.10
2022-12-15T11:08:43.220Z,33.38
2022-12-15T11:11:48.020Z,32.28
2022-12-15T11:14:26.849Z,35.95
2022-12-15T11:16:57.516Z,32.42
2022-12-15T11:19:24.061Z,35.65
2022-12-15T11:21:53.326Z,33.80
2022-12-15T11:24:27.074Z,33.33
2022-12-15T11:27:01.696Z,33.78
2022-12-15T11:29:44.973Z,36.20
2022-12-15T11:32:12.928Z,35.90
2022-12-15T11:34:42.399Z,31.05
2022-12-15T11:37:36.033Z,34.67
2022-12-15T11:40:21.321Z,28.35
2022-12-15T11:43:06.509Z,35.00
2022-12-15T11:45:35.964Z,34.30
2022-12-15T11:48:05.343Z,34.10
2022-12-15T11:50:31.683Z,33.35
2022-12-15T11:53:09.418Z,36.08
2022-12-15T11:55:46.559Z,34.33
2022-12-15T11:58:15.918Z,32.53
2022-12-15T12:00:44.535Z,36.40
2022-12-15T12:03:22.761Z,34.38
2022-12-15T12:06:07.850Z,31.05
2022-12-15T12:08:35.812Z,33.10
2022-12-15T12:11:02.494Z,36.10
2022-12-15T12:13:34.258Z,34.67
2022-12-15T12:16:10.587Z,33.05
2022-12-15T12:18:42.148Z,38.17
2022-12-15T12:21:13.717Z,31.83
2022-12-15T12:23:44.061Z,32.67
2022-12-15T12:26:13.226Z,35.38
2022-12-15T12:28:59.172Z,32.40
2022-12-15T12:31:41.212Z,31.48
2022-12-15T12:34:37.038Z,31.50
2022-12-15T12:37:19.763Z,31.63
2022-12-15T12:39:46.390Z,35.85
2022-12-15T12:42:16.868Z,33.42
2022-12-15T12:44:43.316Z,37.60
2022-12-15T12:47:27.087Z,36.78
2022-12-15T12:49:56.382Z,36.33
2022-12-15T12:52:25.849Z,37.38
2022-12-15T12:54:58.395Z,35.38
2022-12-15T12:57:41.419Z,34.28
2022-12-15T13:00:07.795Z,34.40
2022-12-15T13:02:40.306Z,38.70
2022-12-15T13:05:25.655Z,39.53
2022-12-15T13:07:55.112Z,34.92
2022-12-15T13:10:22.720Z,35.97
2022-12-15T13:15:39.675Z,35.10
2022-12-15T13:18:17.540Z,36.22
2022-12-15T13:20:44.493Z,38.40
2022-12-15T13:23:17.479Z,36.13
2022-12-15T13:25:51.760Z,35.45
2022-12-15T13:28:29.201Z,36.13
2022-12-15T13:31:14.530Z,39.30
2022-12-15T13:33:50.111Z,37.08
2022-12-15T13:36:50.705Z,41.38
2022-12-15T13:39:20.709Z,30.10
2022-12-15T13:42:07.878Z,42.25
2022-12-15T13:44:41.678Z,36.75
2022-12-15T13:47:12.630Z,39.00
2022-12-15T13:49:53.236Z,35.38
2022-12-15T13:52:38.103Z,41.30
2022-12-15T13:55:27.250Z,37.90
2022-12-15T13:57:55.609Z,40.90
2022-12-15T14:00:22.076Z,39.45
2022-12-15T14:02:48.581Z,40.95
2022-12-15T14:05:15.075Z,37.25
2022-12-15T14:07:43.169Z,40.30
2022-12-15T14:10:17.408Z,38.08
2022-12-15T14:15:14.762Z,37.35
2022-12-15T14:17:41.440Z,39.08
2022-12-15T14:20:11.517Z,40.55
2022-12-15T14:22:41.337Z,36.35
2022-12-15T14:25:16.645Z,43.10
2022-12-15T14:27:43.347Z,36.15
2022-12-15T14:30:19.426Z,40.58
2022-12-15T14:32:47.192Z,34.67
2022-12-15T14:35:21.775Z,33.30
2022-12-15T14:37:48.406Z,36.92
2022-12-15T14:40:16.914Z,35.17
2022-12-15T14:42:43.885Z,35.58
2022-12-15T14:45:28.952Z,36.90
2022-12-15T14:48:30.631Z,29.92
2022-12-15T14:50:48.025Z,37.00
2022-12-15T14:53:16.624Z,35.67
2022-12-15T14:55:43.036Z,37.22
2022-12-15T14:58:26.627Z,38.22
2022-12-15T15:00:53.651Z,39.03
2022-12-15T15:03:09.370Z,34.50
2022-12-15T15:03:10.626Z,37.60
2022-12-15T15:03:25.263Z,40.65
2022-12-15T15:05:59.866Z,38.75
2022-12-15T15:08:28.719Z,39.75
2022-12-15T15:10:57.636Z,43.67
2022-12-15T15:13:26.029Z,38.72
2022-12-15T15:15:56.911Z,40.22
2022-12-15T15:18:25.482Z,41.70
2022-12-15T15:20:56.592Z,40.97
2022-12-15T15:23:22.999Z,44.10
2022-12-15T15:25:56.610Z,42.58
2022-12-15T15:28:27.870Z,45.20
2022-12-15T15:30:56.665Z,44.65
2022-12-15T15:33:26.612Z,47.05
2022-12-15T15:35:54.856Z,45.55
2022-12-15T15:38:40.065Z,47.70
2022-12-15T15:41:16.719Z,47.05
2022-12-15T15:43:44.455Z,50.75
2022-12-15T15:46:12.006Z,47.67
2022-12-15T15:48:41.516Z,51.40
2022-12-15T15:51:08.353Z,56.80
2022-12-15T15:53:35.604Z,47.20
2022-12-15T15:56:03.783Z,50.33
2022-12-15T15:58:30.538Z,47.25
2022-12-15T16:00:57.309Z,49.92
2022-12-15T16:03:24.096Z,52.70
2022-12-15T16:05:50.999Z,47.42
2022-12-15T16:08:18.623Z,48.15
2022-12-15T16:10:47.564Z,49.47
2022-12-15T16:13:25.532Z,48.17
2022-12-15T16:15:52.425Z,50.03
2022-12-15T16:18:19.450Z,44.88
2022-12-15T16:20:47.232Z,48.28
2022-12-15T16:23:15.794Z,48.20
2022-12-15T16:25:50.343Z,50.65
2022-12-15T16:28:21.268Z,52.85
2022-12-15T16:30:47.983Z,49.63
2022-12-15T16:33:14.492Z,47.42
2022-12-15T16:35:42.053Z,48.03
2022-12-15T16:38:16.397Z,48.72
2022-12-15T16:43:19.631Z,48.40
2022-12-15T16:45:47.477Z,44.90
2022-12-15T16:48:14.425Z,49.72
2022-12-15T16:50:42.298Z,43.85
2022-12-15T16:53:15.357Z,43.05
2022-12-15T16:55:42.059Z,46.30
2022-12-15T16:58:10.341Z,51.33
2022-12-15T17:00:36.730Z,49.85
2022-12-15T17:03:03.589Z,47.08
2022-12-15T17:05:34.405Z,48.33
2022-12-15T17:08:02.659Z,50.10
2022-12-15T17:10:30.132Z,42.35
2022-12-15T17:13:03.376Z,41.75
2022-12-15T17:15:29.771Z,45.92
2022-12-15T17:17:56.160Z,44.80
2022-12-15T17:20:29.477Z,40.20
2022-12-15T17:22:58.974Z,38.45
2022-12-15T17:25:53.675Z,43.88
2022-12-15T17:28:19.507Z,41.63
2022-12-15T17:30:45.963Z,42.45
2022-12-15T17:33:23.055Z,41.38
2022-12-15T17:35:51.157Z,43.90
2022-12-15T17:38:19.051Z,44.20
2022-12-15T17:40:46.151Z,44.10
2022-12-15T17:43:17.185Z,44.85
2022-12-15T17:45:43.576Z,41.35
2022-12-15T17:48:09.951Z,41.03
2022-12-15T17:50:36.612Z,38.67
2022-12-15T17:53:04.037Z,44.33
2022-12-15T17:55:35.009Z,44.08
2022-12-15T17:58:02.687Z,42.25
2022-12-15T18:00:30.581Z,41.15
2022-12-15T18:02:58.182Z,42.28
2022-12-15T18:05:26.090Z,42.25
2022-12-15T18:07:56.361Z,38.65
2022-12-15T18:10:25.788Z,40.20
2022-12-15T18:12:52.366Z,39.50
2022-12-15T18:15:20.511Z,43.40
2022-12-15T18:17:47.139Z,38.15
2022-12-15T18:20:13.761Z,43.75
2022-12-15T18:22:40.253Z,42.45
2022-12-15T18:25:14.867Z,43.00
2022-12-15T18:27:41.323Z,40.30
2022-12-15T18:30:12.743Z,42.35
2022-12-15T18:32:42.027Z,39.30
2022-12-15T18:35:22.563Z,39.88
2022-12-15T18:37:50.531Z,40.83
2022-12-15T18:40:17.674Z,41.08
2022-12-15T18:42:46.748Z,41.60
2022-12-15T18:45:25.116Z,44.88
2022-12-15T18:47:53.397Z,37.05
2022-12-15T18:50:22.360Z,44.03
2022-12-15T18:52:55.150Z,37.95
2022-12-15T18:55:22.188Z,38.13
2022-12-15T18:57:49.961Z,39.35
2022-12-15T19:00:17.718Z,39.30
2022-12-15T19:02:44.306Z,35.15
2022-12-15T19:05:27.303Z,37.45
2022-12-15T19:07:55.114Z,36.78
2022-12-15T19:10:21.490Z,39.88
2022-12-15T19:12:48.080Z,42.33
2022-12-15T19:15:18.359Z,38.03
2022-12-15T19:18:03.513Z,40.90
2022-12-15T19:20:49.083Z,44.05
2022-12-15T19:23:16.066Z,40.20
2022-12-15T19:25:43.802Z,44.35
2022-12-15T19:28:13.950Z,47.00
2022-12-15T19:30:42.321Z,44.80
2022-12-15T19:33:09.382Z,45.92
2022-12-15T19:35:36.197Z,50.47
2022-12-15T19:38:03.238Z,49.17
2022-12-15T19:40:31.047Z,53.47
2022-12-15T19:42:58.417Z,55.55
2022-12-15T19:45:29.190Z,47.83
2022-12-15T19:47:55.884Z,52.97
2022-12-15T19:50:23.295Z,44.17
2022-12-15T19:52:55.344Z,44.70
2022-12-15T19:55:25.807Z,48.38
2022-12-15T19:57:52.498Z,50.30
2022-12-15T20:00:24.820Z,43.65
2022-12-15T20:02:52.400Z,45.42
2022-12-15T20:05:19.410Z,51.10
2022-12-15T20:07:46.551Z,51.10
2022-12-15T20:10:25.903Z,51.53
2022-12-15T20:12:56.324Z,48.60
2022-12-15T20:15:23.699Z,45.08
2022-12-15T20:17:57.245Z,45.20
2022-12-15T20:20:25.182Z,46.88
2022-12-15T20:22:53.618Z,47.92
2022-12-15T20:25:25.307Z,45.70
2022-12-15T20:27:51.719Z,47.75
2022-12-15T20:30:21.898Z,49.47
2022-12-15T20:32:48.400Z,46.78
2022-12-15T20:35:18.293Z,47.97
2022-12-15T20:37:44.674Z,50.85
2022-12-15T20:40:17.309Z,53.00
2022-12-15T20:42:43.721Z,55.05
2022-12-15T20:45:13.370Z,49.83
2022-12-15T20:47:41.027Z,47.28
2022-12-15T20:50:15.559Z,48.78
2022-12-15T20:52:41.924Z,47.45
2022-12-15T20:55:10.526Z,45.20
2022-12-15T20:57:36.850Z,49.38
2022-12-15T21:00:03.819Z,47.45
2022-12-15T21:02:30.366Z,49.55
2022-12-15T21:04:56.992Z,43.03
2022-12-15T21:07:23.532Z,52.42
2022-12-15T21:09:49.901Z,43.22
2022-12-15T21:12:18.127Z,47.55
2022-12-15T21:14:45.051Z,43.70
2022-12-15T21:17:18.642Z,44.17
2022-12-15T21:19:45.107Z,45.75
2022-12-15T21:22:19.680Z,52.20
2022-12-15T21:24:46.138Z,49.83
2022-12-15T21:27:13.319Z,50.17
2022-12-15T21:29:39.686Z,46.50
2022-12-15T21:32:06.086Z,44.63
2022-12-15T21:34:32.566Z,47.20
2022-12-15T21:36:59.128Z,45.72
2022-12-15T21:39:30.958Z,44.78
2022-12-15T21:41:58.833Z,46.22
2022-12-15T21:44:25.511Z,43.00
2022-12-15T21:46:51.908Z,44.38
2022-12-15T21:49:18.750Z,44.75
2022-12-15T21:51:46.951Z,46.40
2022-12-15T21:54:28.831Z,47.67
2022-12-15T21:56:57.257Z,43.30
2022-12-15T21:59:24.590Z,40.90
2022-12-15T22:01:51.268Z,45.97
2022-12-15T22:04:23.550Z,46.58
2022-12-15T22:06:50.794Z,47.42
2022-12-15T22:09:18.682Z,44.05
2022-12-15T22:11:46.542Z,41.45
2022-12-15T22:14:24.690Z,50.30
2022-12-15T22:16:51.163Z,49.40
2022-12-15T22:19:17.559Z,43.55
2022-12-15T22:21:43.974Z,41.38
2022-12-15T22:24:10.691Z,45.20
2022-12-15T22:26:37.702Z,42.40
2022-12-15T22:29:10.364Z,43.30
2022-12-15T22:31:36.745Z,42.08
2022-12-15T22:34:10.617Z,44.60
2022-12-15T22:36:36.980Z,40.75
2022-12-15T22:39:08.093Z,41.53
2022-12-15T22:41:34.749Z,39.63
2022-12-15T22:44:02.339Z,38.85
2022-12-15T22:46:28.916Z,43.13
2022-12-15T22:48:55.622Z,40.05
2022-12-15T22:51:21.999Z,41.83
2022-12-15T22:53:48.344Z,40.90
2022-12-15T22:56:21.511Z,49.85
2022-12-15T22:58:49.484Z,43.13
2022-12-15T23:01:15.834Z,39.47
2022-12-15T23:03:42.184Z,46.95
2022-12-15T23:06:08.695Z,46.88
2022-12-15T23:08:35.028Z,46.10
2022-12-15T23:11:20.299Z,47.90
2022-12-15T23:13:46.695Z,40.20
2022-12-15T23:16:19.334Z,43.10
2022-12-15T23:18:46.037Z,41.60
2022-12-15T23:21:12.494Z,37.35
2022-12-15T23:23:38.864Z,40.58
2022-12-15T23:26:05.592Z,37.85
2022-12-15T23:28:32.605Z,40.40
2022-12-15T23:30:59.224Z,40.58
2022-12-15T23:33:26.836Z,45.90
2022-12-15T23:35:54.848Z,48.92
2022-12-15T23:38:21.526Z,36.45
2022-12-15T23:40:52.747Z,38.53
2022-12-15T23:43:19.999Z,47.15
2022-12-15T23:45:46.439Z,41.67
2022-12-15T23:48:13.511Z,36.60
2022-12-15T23:50:39.913Z,38.60
2022-12-15T23:53:06.639Z,38.65
2022-12-15T23:55:36.508Z,38.10
2022-12-15T23:58:03.420Z,37.30
